Time;durP1;ratioP1;P1;durP2;ratioP2;P2;SDS_P1;SDS_P2;PMS_P1;PMS_P2;Temp;Humidity;BMP_temperature;BMP_pressure;BME280_temperature;BME280_humidity;BME280_pressure;Samples;Min_cycle;Max_cycle;Signal;HPM_P1;HPM_P2
2022/05/03 00:01:02;;;;;;;13.47;6.83;;;;;;;;;;5028123;28;20712;-58
2022/05/03 00:03:30;;;;;;;14.30;6.50;;;;;;;;;;5028922;28;20053;-58
2022/05/03 00:06:15;;;;;;;14.57;7.20;;;;;;;;;;5046970;28;20048;-58
2022/05/03 00:08:44;;;;;;;14.13;6.27;;;;;;;;;;5048520;28;20048;-58
2022/05/03 00:11:16;;;;;;;10.10;5.93;;;;;;;;;;5047370;28;20045;-58
2022/05/03 00:14:01;;;;;;;12.80;6.13;;;;;;;;;;5048566;28;20037;-58
2022/05/03 00:16:27;;;;;;;15.57;7.40;;;;;;;;;;5048727;28;20107;-58
2022/05/03 00:18:53;;;;;;;16.37;7.97;;;;;;;;;;5048523;28;20076;-58
2022/05/03 00:21:19;;;;;;;12.00;6.30;;;;;;;;;;5049026;28;20083;-58
2022/05/03 00:23:46;;;;;;;12.20;6.93;;;;;;;;;;5048211;28;20053;-57
2022/05/03 00:26:12;;;;;;;12.93;7.23;;;;;;;;;;5048535;28;20041;-58
2022/05/03 00:28:39;;;;;;;17.27;8.40;;;;;;;;;;5048166;28;20049;-58
2022/05/03 00:31:06;;;;;;;15.53;7.53;;;;;;;;;;5048774;28;20045;-58
2022/05/03 00:33:33;;;;;;;18.03;8.67;;;;;;;;;;5048101;28;20045;-58
2022/05/03 00:35:59;;;;;;;22.00;10.27;;;;;;;;;;5048123;28;20083;-58
2022/05/03 00:38:25;;;;;;;19.23;9.67;;;;;;;;;;5048527;28;20392;-57
2022/05/03 00:41:01;;;;;;;19.63;8.70;;;;;;;;;;5048245;28;20054;-58
2022/05/03 00:43:45;;;;;;;17.97;8.10;;;;;;;;;;5048441;28;20041;-58
2022/05/03 00:46:22;;;;;;;14.43;8.00;;;;;;;;;;5048380;28;20047;-58
2022/05/03 00:49:07;;;;;;;19.77;8.00;;;;;;;;;;5048038;28;20041;-58
2022/05/03 00:51:50;;;;;;;16.20;8.67;;;;;;;;;;5046550;28;20048;-58
2022/05/03 00:54:19;;;;;;;15.73;8.30;;;;;;;;;;5048060;28;20178;-58
2022/05/03 00:57:03;;;;;;;13.20;8.23;;;;;;;;;;5048336;28;20072;-57
2022/05/03 00:59:48;;;;;;;17.63;9.07;;;;;;;;;;5048237;28;20060;-58
2022/05/03 01:02:15;;;;;;;19.40;9.50;;;;;;;;;;5044341;28;20891;-58
2022/05/03 01:04:54;;;;;;;21.00;9.37;;;;;;;;;;5047851;28;20283;-58
2022/05/03 01:07:36;;;;;;;17.90;9.67;;;;;;;;;;5047799;28;20056;-58
2022/05/03 01:10:05;;;;;;;21.33;10.00;;;;;;;;;;5048024;28;20103;-58
2022/05/03 01:12:50;;;;;;;19.97;10.80;;;;;;;;;;5048784;28;20813;-58
2022/05/03 01:15:21;;;;;;;19.33;11.00;;;;;;;;;;5051787;28;20052;-58
2022/05/03 01:17:54;;;;;;;23.50;9.97;;;;;;;;;;5051787;28;20076;-58
2022/05/03 01:20:30;;;;;;;19.80;9.43;;;;;;;;;;5051887;28;20091;-58
2022/05/03 01:23:01;;;;;;;20.53;10.90;;;;;;;;;;5051841;28;20127;-58
2022/05/03 01:25:35;;;;;;;18.73;10.40;;;;;;;;;;5050176;28;20294;-58
2022/05/03 01:28:05;;;;;;;22.88;10.40;;;;;;;;;;5051460;28;20071;-58
2022/05/03 01:30:31;;;;;;;17.37;9.77;;;;;;;;;;5051462;28;20053;-58
2022/05/03 01:33:07;;;;;;;18.43;9.30;;;;;;;;;;5051207;28;20049;-58
2022/05/03 01:35:38;;;;;;;14.17;7.70;;;;;;;;;;5049317;28;20303;-58
2022/05/03 01:38:30;;;;;;;17.30;8.27;;;;;;;;;;5051353;28;20126;-58
2022/05/03 01:41:15;;;;;;;14.27;7.90;;;;;;;;;;5048855;28;20287;-58
2022/05/03 01:44:01;;;;;;;15.60;7.17;;;;;;;;;;5051186;28;20383;-58
2022/05/03 01:46:31;;;;;;;13.57;7.00;;;;;;;;;;5051000;28;20276;-58
2022/05/03 01:51:50;;;;;;;19.30;9.53;;;;;;;;;;5048839;28;20383;-57
2022/05/03 01:54:28;;;;;;;14.70;7.97;;;;;;;;;;5050937;28;20319;-58
2022/05/03 01:57:13;;;;;;;15.97;8.40;;;;;;;;;;5050760;28;20320;-58
2022/05/03 01:59:54;;;;;;;19.23;8.13;;;;;;;;;;5050958;28;20048;-58
2022/05/03 02:02:23;;;;;;;17.03;9.27;;;;;;;;;;5038278;28;20140;-58
2022/05/03 02:04:55;;;;;;;20.77;10.07;;;;;;;;;;5031261;28;20288;-58
2022/05/03 02:07:21;;;;;;;19.57;10.03;;;;;;;;;;5031058;28;20634;-58
2022/05/03 02:10:00;;;;;;;22.17;10.37;;;;;;;;;;5030557;28;20295;-58
2022/05/03 02:12:27;;;;;;;23.67;10.17;;;;;;;;;;5030667;28;20061;-60
2022/05/03 02:14:54;;;;;;;24.30;10.20;;;;;;;;;;5030847;28;20288;-58
2022/05/03 02:17:29;;;;;;;17.77;9.40;;;;;;;;;;5044342;28;20053;-58
2022/05/03 02:20:14;;;;;;;19.70;10.10;;;;;;;;;;5050613;28;20045;-58
2022/05/03 02:22:49;;;;;;;21.97;10.20;;;;;;;;;;5050191;28;20295;-58
2022/05/03 02:25:21;;;;;;;17.37;10.23;;;;;;;;;;5049031;28;20298;-58
2022/05/03 02:27:52;;;;;;;23.23;10.70;;;;;;;;;;5049677;28;20327;-58
2022/05/03 02:30:19;;;;;;;24.20;10.67;;;;;;;;;;5050217;28;20334;-58
2022/05/03 02:32:45;;;;;;;22.10;11.67;;;;;;;;;;5047726;28;20311;-58
2022/05/03 02:35:14;;;;;;;22.93;11.07;;;;;;;;;;5049346;28;20299;-58
2022/05/03 02:37:56;;;;;;;23.63;12.50;;;;;;;;;;5049381;28;20836;-58
2022/05/03 02:40:25;;;;;;;27.83;11.83;;;;;;;;;;5050243;28;20310;-58
2022/05/03 02:42:55;;;;;;;22.03;11.93;;;;;;;;;;5046484;28;20358;-58
2022/05/03 02:45:21;;;;;;;24.80;12.97;;;;;;;;;;5039185;28;20283;-58
2022/05/03 02:47:59;;;;;;;29.60;12.13;;;;;;;;;;5040751;28;20334;-58
2022/05/03 02:50:29;;;;;;;23.67;11.37;;;;;;;;;;5050250;28;20295;-58
2022/05/03 02:53:09;;;;;;;25.10;10.67;;;;;;;;;;5049739;28;20317;-58
2022/05/03 02:55:46;;;;;;;23.17;10.57;;;;;;;;;;5049621;28;20757;-58
2022/05/03 02:58:19;;;;;;;21.40;9.53;;;;;;;;;;5043024;28;21140;-58
2022/05/03 03:04:00;;;;;;;18.80;9.33;;;;;;;;;;5039905;28;20051;-59
2022/05/03 03:06:31;;;;;;;22.80;10.83;;;;;;;;;;5037054;28;20415;-58
2022/05/03 03:08:58;;;;;;;22.67;10.70;;;;;;;;;;5038798;28;20759;-58
2022/05/03 03:11:42;;;;;;;20.53;10.97;;;;;;;;;;5039887;28;20454;-58
2022/05/03 03:14:19;;;;;;;22.87;10.73;;;;;;;;;;5037512;28;20362;-58
2022/05/03 03:16:51;;;;;;;24.50;12.37;;;;;;;;;;5037337;28;20292;-58
2022/05/03 03:19:26;;;;;;;26.07;13.33;;;;;;;;;;5040117;28;20292;-58
2022/05/03 03:21:55;;;;;;;30.17;13.57;;;;;;;;;;5037851;28;21173;-58
2022/05/03 03:24:22;;;;;;;29.80;13.00;;;;;;;;;;5037925;28;20298;-58
2022/05/03 03:26:48;;;;;;;23.90;11.33;;;;;;;;;;5038254;28;20374;-58
2022/05/03 03:29:14;;;;;;;18.93;11.07;;;;;;;;;;5038966;28;20337;-58
2022/05/03 03:31:42;;;;;;;26.63;11.80;;;;;;;;;;5042366;28;21063;-58
2022/05/03 03:34:11;;;;;;;26.10;11.13;;;;;;;;;;5035136;28;20292;-58
2022/05/03 03:36:37;;;;;;;24.33;12.30;;;;;;;;;;5030851;28;20336;-58
2022/05/03 03:39:04;;;;;;;20.87;9.57;;;;;;;;;;5045622;28;20337;-58
2022/05/03 03:41:30;;;;;;;25.20;12.23;;;;;;;;;;5047645;28;20409;-58
2022/05/03 03:43:56;;;;;;;26.83;12.47;;;;;;;;;;5048543;28;20275;-58
2022/05/03 03:46:22;;;;;;;24.17;11.97;;;;;;;;;;5050349;28;20283;-58
2022/05/03 03:48:48;;;;;;;18.43;9.77;;;;;;;;;;5050201;28;20048;-58
2022/05/03 03:51:14;;;;;;;21.50;10.17;;;;;;;;;;5049331;28;20322;-58
2022/05/03 03:53:41;;;;;;;26.50;10.73;;;;;;;;;;5048636;28;20314;-58
2022/05/03 03:56:07;;;;;;;29.53;12.57;;;;;;;;;;5049664;28;20287;-58
2022/05/03 03:58:34;;;;;;;27.47;12.73;;;;;;;;;;5037210;28;20311;-58
2022/05/03 04:01:00;;;;;;;31.80;13.40;;;;;;;;;;5029800;28;20293;-58
2022/05/03 04:03:26;;;;;;;24.10;11.40;;;;;;;;;;5030021;28;20284;-58
2022/05/03 04:05:52;;;;;;;26.23;11.57;;;;;;;;;;5029441;28;20296;-58
2022/05/03 04:08:18;;;;;;;22.50;11.50;;;;;;;;;;5029547;28;20336;-58
2022/05/03 04:10:45;;;;;;;27.13;12.83;;;;;;;;;;5029145;28;20045;-58
2022/05/03 04:13:13;;;;;;;25.97;11.93;;;;;;;;;;5029406;28;20280;-58
2022/05/03 04:15:40;;;;;;;23.50;10.73;;;;;;;;;;5027985;28;20292;-58
2022/05/03 04:18:07;;;;;;;27.47;11.23;;;;;;;;;;5035718;28;20661;-58
2022/05/03 04:20:33;;;;;;;22.83;11.40;;;;;;;;;;5049221;28;20276;-58
2022/05/03 04:22:59;;;;;;;22.30;12.43;;;;;;;;;;5048761;28;20298;-58
2022/05/03 04:25:26;;;;;;;26.90;12.37;;;;;;;;;;5049113;28;20768;-58
2022/05/03 04:27:52;;;;;;;26.07;12.93;;;;;;;;;;5048518;28;20306;-58
2022/05/03 04:30:18;;;;;;;22.43;12.73;;;;;;;;;;5049012;28;20306;-58
2022/05/03 04:32:44;;;;;;;28.10;13.43;;;;;;;;;;5048670;28;20307;-58
2022/05/03 04:35:10;;;;;;;29.17;14.13;;;;;;;;;;5048683;28;20291;-58
2022/05/03 04:37:36;;;;;;;25.87;12.67;;;;;;;;;;5049042;28;20287;-58
2022/05/03 04:40:02;;;;;;;33.40;15.50;;;;;;;;;;5046904;28;20292;-58
2022/05/03 04:42:28;;;;;;;31.73;14.30;;;;;;;;;;5028836;28;20280;-58
2022/05/03 04:44:54;;;;;;;25.90;13.90;;;;;;;;;;5029640;28;20806;-58
2022/05/03 04:47:20;;;;;;;31.97;14.40;;;;;;;;;;5028982;28;20327;-58
2022/05/03 04:49:50;;;;;;;22.43;13.00;;;;;;;;;;5032619;28;20363;-58
2022/05/03 04:52:16;;;;;;;27.10;13.27;;;;;;;;;;5032624;28;20312;-58
2022/05/03 04:54:42;;;;;;;31.47;13.63;;;;;;;;;;5032760;28;20340;-58
2022/05/03 04:57:09;;;;;;;29.70;15.73;;;;;;;;;;5032711;28;20311;-58
2022/05/03 04:59:36;;;;;;;32.37;16.40;;;;;;;;;;5032747;28;20284;-58
2022/05/03 05:02:02;;;;;;;32.10;15.93;;;;;;;;;;5032553;28;20425;-58
2022/05/03 05:04:29;;;;;;;32.07;15.50;;;;;;;;;;5033045;28;20284;-59
2022/05/03 05:06:55;;;;;;;33.23;18.57;;;;;;;;;;5032052;28;20815;-59
2022/05/03 05:09:21;;;;;;;38.73;19.27;;;;;;;;;;5032539;28;20298;-58
2022/05/03 05:11:48;;;;;;;38.47;20.03;;;;;;;;;;5042448;28;20898;-59
2022/05/03 05:14:14;;;;;;;36.97;18.00;;;;;;;;;;5052287;28;20291;-58
2022/05/03 05:16:40;;;;;;;40.33;18.40;;;;;;;;;;5051466;28;20127;-59
2022/05/03 05:19:06;;;;;;;28.20;16.63;;;;;;;;;;5032720;28;20053;-59
2022/05/03 05:21:32;;;;;;;33.43;17.07;;;;;;;;;;5032002;28;20303;-58
2022/05/03 05:24:00;;;;;;;33.73;19.73;;;;;;;;;;5048911;28;20934;-59
2022/05/03 05:26:26;;;;;;;35.93;19.70;;;;;;;;;;5051989;28;20052;-60
2022/05/03 05:28:53;;;;;;;35.23;20.33;;;;;;;;;;5044084;28;20061;-59
2022/05/03 05:31:19;;;;;;;35.43;20.80;;;;;;;;;;5051907;28;20053;-59
2022/05/03 05:33:45;;;;;;;52.23;26.60;;;;;;;;;;5051219;28;20041;-59
2022/05/03 05:36:11;;;;;;;29.67;17.27;;;;;;;;;;5050474;28;20572;-59
2022/05/03 05:38:37;;;;;;;40.00;23.27;;;;;;;;;;5050212;28;20045;-61
2022/05/03 05:41:11;;;;;;;52.87;26.30;;;;;;;;;;5049084;28;20045;-61
2022/05/03 05:43:37;;;;;;;38.30;20.30;;;;;;;;;;5053801;28;20056;-61
2022/05/03 05:46:03;;;;;;;46.63;27.20;;;;;;;;;;5052177;28;20127;-61
2022/05/03 05:48:29;;;;;;;51.83;30.20;;;;;;;;;;5066070;28;20076;-61
2022/05/03 05:50:55;;;;;;;55.87;30.00;;;;;;;;;;5070074;28;20099;-61
2022/05/03 05:53:33;;;;;;;58.70;30.07;;;;;;;;;;5068833;28;20041;-61
2022/05/03 05:56:03;;;;;;;46.47;26.57;;;;;;;;;;5049732;28;20107;-61
2022/05/03 05:58:30;;;;;;;39.23;26.10;;;;;;;;;;5051410;28;20461;-61
2022/05/03 06:00:56;;;;;;;57.13;32.00;;;;;;;;;;5049793;28;20046;-61
2022/05/03 06:03:22;;;;;;;52.83;33.70;;;;;;;;;;5043657;28;20537;-61
2022/05/03 06:05:49;;;;;;;59.37;32.63;;;;;;;;;;5036294;28;20546;-61
2022/05/03 06:08:15;;;;;;;66.40;35.43;;;;;;;;;;5033379;28;20042;-61
2022/05/03 06:10:41;;;;;;;52.93;31.87;;;;;;;;;;5047638;28;20877;-61
2022/05/03 06:13:07;;;;;;;63.60;36.37;;;;;;;;;;5048946;28;20049;-61
2022/05/03 06:15:33;;;;;;;65.63;35.83;;;;;;;;;;5031222;28;20056;-61
2022/05/03 06:18:01;;;;;;;70.73;41.43;;;;;;;;;;5030447;28;20064;-61
2022/05/03 06:20:27;;;;;;;72.17;37.60;;;;;;;;;;5031864;28;20462;-61
2022/05/03 06:22:53;;;;;;;61.80;36.57;;;;;;;;;;5030953;28;20614;-61
2022/05/03 06:25:19;;;;;;;58.80;34.60;;;;;;;;;;5031819;28;20175;-62
2022/05/03 06:27:45;;;;;;;59.10;34.93;;;;;;;;;;5031349;28;20050;-61
2022/05/03 06:30:11;;;;;;;70.93;40.70;;;;;;;;;;5032175;28;20052;-61
2022/05/03 06:32:37;;;;;;;67.43;37.63;;;;;;;;;;5031314;28;20049;-61
2022/05/03 06:35:04;;;;;;;61.97;37.53;;;;;;;;;;5044597;28;20040;-61
2022/05/03 06:37:30;;;;;;;68.53;39.53;;;;;;;;;;5030278;28;20044;-61
2022/05/03 06:39:56;;;;;;;78.67;44.53;;;;;;;;;;5042156;28;20398;-59
2022/05/03 06:42:22;;;;;;;72.53;43.00;;;;;;;;;;5050874;28;20044;-59
2022/05/03 06:44:48;;;;;;;61.50;37.83;;;;;;;;;;5050563;28;20099;-59
2022/05/03 06:47:14;;;;;;;71.07;42.80;;;;;;;;;;5037282;28;20100;-59
2022/05/03 06:49:40;;;;;;;73.87;43.00;;;;;;;;;;5042688;28;20090;-62
2022/05/03 06:52:06;;;;;;;53.07;34.90;;;;;;;;;;5039958;28;20528;-60
2022/05/03 06:54:32;;;;;;;61.67;40.17;;;;;;;;;;5049892;28;20055;-62
2022/05/03 06:56:58;;;;;;;62.10;39.67;;;;;;;;;;5045421;28;20033;-62
2022/05/03 06:59:24;;;;;;;56.20;37.00;;;;;;;;;;5047119;28;20044;-62
2022/05/03 07:01:50;;;;;;;56.80;38.47;;;;;;;;;;5030196;28;20052;-59
2022/05/03 07:04:19;;;;;;;61.17;37.67;;;;;;;;;;5035999;28;20469;-62
2022/05/03 07:06:45;;;;;;;49.10;32.80;;;;;;;;;;5049929;28;20045;-60
2022/05/03 07:09:11;;;;;;;56.60;34.33;;;;;;;;;;5048070;28;20045;-61
2022/05/03 07:11:37;;;;;;;54.87;36.13;;;;;;;;;;5032829;28;20054;-61
2022/05/03 07:14:04;;;;;;;48.63;33.97;;;;;;;;;;5032774;28;20121;-61
2022/05/03 07:16:30;;;;;;;50.23;32.87;;;;;;;;;;5050209;28;20431;-62
2022/05/03 07:24:26;;;;;;;58.03;34.33;;;;;;;;;;5031682;28;20052;-61
2022/05/03 07:26:52;;;;;;;62.97;35.07;;;;;;;;;;5029168;28;20135;-62
2022/05/03 07:29:18;;;;;;;62.63;34.73;;;;;;;;;;5030047;28;20423;-62
2022/05/03 07:31:44;;;;;;;58.43;31.27;;;;;;;;;;5030052;28;20053;-62
2022/05/03 07:34:10;;;;;;;71.70;36.43;;;;;;;;;;5030385;28;20045;-61
2022/05/03 07:36:37;;;;;;;76.07;38.60;;;;;;;;;;5032106;28;20068;-62
2022/05/03 07:39:03;;;;;;;74.40;38.70;;;;;;;;;;5039708;28;20395;-61
2022/05/03 07:41:29;;;;;;;87.17;42.43;;;;;;;;;;5029581;28;20057;-62
2022/05/03 07:43:55;;;;;;;98.97;43.30;;;;;;;;;;5028456;28;20462;-61
2022/05/03 07:46:21;;;;;;;86.20;41.50;;;;;;;;;;5028781;28;20518;-61
2022/05/03 07:48:47;;;;;;;82.37;38.73;;;;;;;;;;5029567;28;20495;-61
2022/05/03 07:51:14;;;;;;;81.03;40.43;;;;;;;;;;5028355;28;20041;-61
2022/05/03 07:53:40;;;;;;;70.60;37.60;;;;;;;;;;5029791;28;20110;-61
2022/05/03 07:56:07;;;;;;;75.07;38.30;;;;;;;;;;5029653;28;20045;-61
2022/05/03 07:58:35;;;;;;;74.53;37.20;;;;;;;;;;5029660;28;20045;-61
2022/05/03 08:01:01;;;;;;;75.00;36.50;;;;;;;;;;5029182;28;20563;-62
2022/05/03 08:03:27;;;;;;;78.17;37.13;;;;;;;;;;5029663;28;20132;-61
2022/05/03 08:05:53;;;;;;;80.10;37.27;;;;;;;;;;5029579;28;20132;-61
2022/05/03 08:08:19;;;;;;;83.70;35.77;;;;;;;;;;5029916;28;20164;-61
2022/05/03 08:10:46;;;;;;;80.63;37.17;;;;;;;;;;5029408;28;20033;-61
2022/05/03 08:13:12;;;;;;;82.13;36.80;;;;;;;;;;5029918;28;20041;-61
2022/05/03 08:15:39;;;;;;;81.63;38.50;;;;;;;;;;5029727;28;20064;-61
2022/05/03 08:18:05;;;;;;;82.27;38.23;;;;;;;;;;5029402;28;20115;-62
2022/05/03 08:20:31;;;;;;;78.17;37.80;;;;;;;;;;5028243;28;20042;-62
2022/05/03 08:22:58;;;;;;;91.77;37.97;;;;;;;;;;5031192;28;20064;-61
2022/05/03 08:25:24;;;;;;;76.93;35.00;;;;;;;;;;5016026;28;20050;-61
2022/05/03 08:27:50;;;;;;;76.13;36.10;;;;;;;;;;5033775;28;20057;-61
2022/05/03 08:30:17;;;;;;;69.27;31.43;;;;;;;;;;5037470;28;20558;-61
2022/05/03 08:32:43;;;;;;;53.07;28.77;;;;;;;;;;5053414;28;20110;-61
2022/05/03 08:35:10;;;;;;;54.07;26.10;;;;;;;;;;5052831;28;20126;-61
2022/05/03 08:43:06;;;;;;;47.07;24.63;;;;;;;;;;5033407;28;20418;-61
2022/05/03 08:45:32;;;;;;;38.83;22.37;;;;;;;;;;5033013;28;20503;-61
2022/05/03 08:48:03;;;;;;;37.00;20.17;;;;;;;;;;5033167;28;20045;-61
2022/05/03 08:50:31;;;;;;;41.00;22.73;;;;;;;;;;5033280;28;20095;-61
2022/05/03 08:53:01;;;;;;;42.97;23.00;;;;;;;;;;5032506;28;20045;-61
2022/05/03 08:55:28;;;;;;;36.87;20.90;;;;;;;;;;5033231;28;20042;-61
2022/05/03 08:57:54;;;;;;;35.70;20.57;;;;;;;;;;5032629;28;20374;-61
2022/05/03 09:00:20;;;;;;;35.17;20.37;;;;;;;;;;5031342;28;20414;-61
2022/05/03 09:02:47;;;;;;;34.83;19.60;;;;;;;;;;5032361;28;20078;-61
2022/05/03 09:05:13;;;;;;;28.70;18.10;;;;;;;;;;5032108;28;20499;-61
2022/05/03 09:07:45;;;;;;;33.40;20.30;;;;;;;;;;5031559;28;20242;-61
2022/05/03 09:10:18;;;;;;;32.97;20.63;;;;;;;;;;5036968;28;20120;-61
2022/05/03 09:12:45;;;;;;;32.53;19.67;;;;;;;;;;5041590;28;20086;-61
2022/05/03 09:15:14;;;;;;;32.00;18.50;;;;;;;;;;5046445;28;20402;-61
2022/05/03 09:17:44;;;;;;;30.27;18.10;;;;;;;;;;5041047;28;20063;-61
2022/05/03 09:25:47;;;;;;;36.13;18.53;;;;;;;;;;5040802;28;20044;-61
2022/05/03 09:28:13;;;;;;;31.03;16.80;;;;;;;;;;5043579;28;20461;-61
2022/05/03 09:30:47;;;;;;;29.30;14.70;;;;;;;;;;5038070;28;20502;-60
2022/05/03 09:33:17;;;;;;;35.07;12.70;;;;;;;;;;5038083;28;20522;-60
2022/05/03 09:35:43;;;;;;;19.40;11.50;;;;;;;;;;5039564;28;20399;-60
2022/05/03 09:38:08;;;;;;;18.80;8.67;;;;;;;;;;5040317;28;20051;-61
2022/05/03 09:40:35;;;;;;;24.67;10.07;;;;;;;;;;5039401;28;20041;-62
2022/05/03 09:43:01;;;;;;;14.53;8.00;;;;;;;;;;5041514;28;20048;-59
2022/05/03 09:45:28;;;;;;;17.10;8.03;;;;;;;;;;5051154;28;20037;-59
2022/05/03 09:47:55;;;;;;;12.27;7.53;;;;;;;;;;5049936;28;20041;-59
2022/05/03 09:50:28;;;;;;;15.53;7.00;;;;;;;;;;5049260;28;20056;-59
2022/05/03 09:52:55;;;;;;;12.77;6.60;;;;;;;;;;5049332;28;20128;-59
2022/05/03 09:55:32;;;;;;;15.40;5.87;;;;;;;;;;5048629;28;20558;-60
2022/05/03 09:58:02;;;;;;;13.43;6.60;;;;;;;;;;5047749;28;20041;-60
2022/05/03 10:00:30;;;;;;;12.03;6.53;;;;;;;;;;5045349;28;20573;-60
2022/05/03 10:02:56;;;;;;;10.37;6.00;;;;;;;;;;5030842;28;20054;-61
2022/05/03 10:05:23;;;;;;;12.20;6.50;;;;;;;;;;5033118;28;20847;-61
2022/05/03 10:07:50;;;;;;;16.03;7.63;;;;;;;;;;5041616;28;20045;-61
2022/05/03 10:10:16;;;;;;;12.67;6.20;;;;;;;;;;5039622;28;20036;-60
2022/05/03 10:12:43;;;;;;;13.33;7.33;;;;;;;;;;5048005;28;20045;-60
2022/05/03 10:15:10;;;;;;;13.00;6.57;;;;;;;;;;5032280;28;20251;-61
2022/05/03 10:20:37;;;;;;;14.20;5.80;;;;;;;;;;5031421;28;20072;-61
2022/05/03 10:23:03;;;;;;;12.53;6.10;;;;;;;;;;5030053;28;20052;-60
2022/05/03 10:25:47;;;;;;;14.97;7.20;;;;;;;;;;5030094;28;20610;-60
2022/05/03 10:28:14;;;;;;;16.07;6.07;;;;;;;;;;5030744;28;20045;-60
2022/05/03 10:31:00;;;;;;;12.60;6.20;;;;;;;;;;5044377;28;20135;-60
2022/05/03 10:33:28;;;;;;;16.07;6.03;;;;;;;;;;5042270;28;20522;-60
2022/05/03 10:35:54;;;;;;;12.77;6.63;;;;;;;;;;5048382;28;20053;-60
2022/05/03 10:38:39;;;;;;;20.43;6.73;;;;;;;;;;5041407;28;20608;-60
2022/05/03 10:41:05;;;;;;;25.13;7.77;;;;;;;;;;5037247;28;20482;-60
2022/05/03 10:43:35;;;;;;;23.83;7.50;;;;;;;;;;5047863;28;20048;-60
2022/05/03 10:46:14;;;;;;;19.47;6.77;;;;;;;;;;5047594;28;20063;-60
2022/05/03 10:48:41;;;;;;;21.17;6.57;;;;;;;;;;5047472;28;20048;-60
2022/05/03 10:51:15;;;;;;;17.27;6.53;;;;;;;;;;5046733;28;20045;-60
2022/05/03 10:53:41;;;;;;;16.13;6.83;;;;;;;;;;5047343;28;20560;-60
2022/05/03 10:56:09;;;;;;;16.97;7.27;;;;;;;;;;5046081;28;20192;-61
2022/05/03 10:58:39;;;;;;;15.83;6.73;;;;;;;;;;5048816;28;20080;-60
2022/05/03 11:01:21;;;;;;;16.20;6.60;;;;;;;;;;5048380;28;20060;-60
2022/05/03 11:03:57;;;;;;;16.47;6.67;;;;;;;;;;5048705;28;20053;-60
2022/05/03 11:06:26;;;;;;;21.60;7.50;;;;;;;;;;5046767;28;20088;-60
2022/05/03 11:11:47;;;;;;;16.30;6.57;;;;;;;;;;5046702;28;20052;-60
2022/05/03 11:14:16;;;;;;;20.63;7.43;;;;;;;;;;5048754;28;20076;-60
2022/05/03 11:16:42;;;;;;;19.30;6.30;;;;;;;;;;5047039;28;20041;-60
2022/05/03 11:19:12;;;;;;;15.50;5.83;;;;;;;;;;5049407;28;20045;-60
2022/05/03 11:21:38;;;;;;;18.73;6.97;;;;;;;;;;5048070;28;20045;-60
2022/05/03 11:24:05;;;;;;;18.20;5.97;;;;;;;;;;5048482;28;20446;-61
2022/05/03 11:26:31;;;;;;;13.40;5.60;;;;;;;;;;5049012;28;20044;-61
2022/05/03 11:28:58;;;;;;;15.40;5.87;;;;;;;;;;5048029;28;20052;-61
2022/05/03 11:31:26;;;;;;;14.00;6.83;;;;;;;;;;5048363;28;20123;-61
2022/05/03 11:33:59;;;;;;;18.83;7.10;;;;;;;;;;5047657;28;20069;-61
2022/05/03 11:36:28;;;;;;;15.05;5.43;;;;;;;;;;5048897;28;20495;-60
2022/05/03 11:38:56;;;;;;;17.90;5.90;;;;;;;;;;5046799;28;20842;-60
2022/05/03 11:41:28;;;;;;;15.13;5.33;;;;;;;;;;5033878;28;20085;-61
2022/05/03 11:43:55;;;;;;;16.80;5.63;;;;;;;;;;5033457;28;20422;-60
2022/05/03 11:46:22;;;;;;;17.10;5.70;;;;;;;;;;5047727;28;20447;-61
2022/05/03 11:49:00;;;;;;;13.67;4.93;;;;;;;;;;5048127;28;20893;-61
2022/05/03 11:57:13;;;;;;;18.30;4.63;;;;;;;;;;5036203;28;21118;-60
2022/05/03 11:59:40;;;;;;;13.30;4.40;;;;;;;;;;5039007;28;20152;-61
2022/05/03 12:02:12;;;;;;;8.30;3.83;;;;;;;;;;5032079;28;20044;-60
2022/05/03 12:04:38;;;;;;;14.60;3.93;;;;;;;;;;5036279;28;20101;-61
2022/05/03 12:07:04;;;;;;;13.43;4.10;;;;;;;;;;5048360;28;20135;-60
2022/05/03 12:09:38;;;;;;;15.50;4.17;;;;;;;;;;5047738;28;20503;-60
2022/05/03 12:14:48;;;;;;;14.47;4.17;;;;;;;;;;5047927;28;20080;-60
2022/05/03 12:17:14;;;;;;;16.67;4.27;;;;;;;;;;5048298;28;20091;-61
2022/05/03 12:19:42;;;;;;;15.40;4.50;;;;;;;;;;5047325;28;20063;-61
2022/05/03 12:22:12;;;;;;;14.27;4.77;;;;;;;;;;5048050;28;20049;-62
2022/05/03 12:24:38;;;;;;;11.13;4.10;;;;;;;;;;5047760;28;20049;-61
2022/05/03 12:27:15;;;;;;;19.10;5.23;;;;;;;;;;5048475;28;20045;-61
2022/05/03 12:29:47;;;;;;;9.47;4.00;;;;;;;;;;5046950;28;20049;-61
2022/05/03 12:32:16;;;;;;;14.52;4.50;;;;;;;;;;5028252;28;20072;-61
2022/05/03 12:34:57;;;;;;;13.60;4.27;;;;;;;;;;5037077;28;20098;-61
2022/05/03 12:37:24;;;;;;;13.13;4.83;;;;;;;;;;5048365;28;20045;-61
2022/05/03 12:39:50;;;;;;;11.83;4.17;;;;;;;;;;5047107;28;20045;-61
2022/05/03 12:42:16;;;;;;;12.40;3.43;;;;;;;;;;5046139;28;20514;-61
2022/05/03 12:44:49;;;;;;;13.27;4.23;;;;;;;;;;5048017;28;20048;-61
2022/05/03 12:47:16;;;;;;;10.80;3.63;;;;;;;;;;5046024;28;20139;-61
2022/05/03 12:49:42;;;;;;;7.10;3.10;;;;;;;;;;5047430;28;20548;-61
2022/05/03 12:52:08;;;;;;;9.13;2.53;;;;;;;;;;5044060;28;20107;-61
2022/05/03 12:54:38;;;;;;;11.87;3.43;;;;;;;;;;5027965;28;20507;-61
2022/05/03 12:59:49;;;;;;;7.87;2.80;;;;;;;;;;5027970;28;20057;-61
2022/05/03 13:02:17;;;;;;;12.50;3.10;;;;;;;;;;5029661;28;20926;-61
2022/05/03 13:04:43;;;;;;;7.30;2.80;;;;;;;;;;5047934;28;20045;-61
2022/05/03 13:07:09;;;;;;;8.33;2.60;;;;;;;;;;5047465;28;20056;-61
2022/05/03 13:09:35;;;;;;;9.53;2.40;;;;;;;;;;5050625;28;20044;-61
2022/05/03 13:12:01;;;;;;;11.67;2.97;;;;;;;;;;5050793;28;20932;-61
2022/05/03 13:14:29;;;;;;;12.77;3.00;;;;;;;;;;5051288;28;20170;-61
2022/05/03 13:16:55;;;;;;;8.23;3.10;;;;;;;;;;5051591;28;20072;-61
2022/05/03 13:19:21;;;;;;;9.30;3.10;;;;;;;;;;5047922;28;20081;-61
2022/05/03 13:21:48;;;;;;;8.33;2.70;;;;;;;;;;5030494;28;20068;-61
2022/05/03 13:24:14;;;;;;;7.70;3.17;;;;;;;;;;5031715;28;20075;-61
2022/05/03 13:26:40;;;;;;;9.80;3.23;;;;;;;;;;5043955;28;20414;-61
2022/05/03 13:29:11;;;;;;;6.50;2.60;;;;;;;;;;5051046;28;20155;-61
2022/05/03 13:31:40;;;;;;;8.27;2.90;;;;;;;;;;5050362;28;20502;-61
2022/05/03 13:34:08;;;;;;;12.60;2.73;;;;;;;;;;5050848;28;20095;-61
2022/05/03 13:42:03;;;;;;;11.57;2.60;;;;;;;;;;5049749;28;20053;-61
2022/05/03 13:44:29;;;;;;;6.57;2.30;;;;;;;;;;5049506;28;20048;-61
2022/05/03 13:46:55;;;;;;;7.10;2.17;;;;;;;;;;5050392;28;20044;-61
2022/05/03 13:49:21;;;;;;;9.47;3.07;;;;;;;;;;5050617;28;20074;-61
2022/05/03 13:51:47;;;;;;;10.10;2.37;;;;;;;;;;5049243;28;20044;-61
2022/05/03 13:54:13;;;;;;;8.43;2.40;;;;;;;;;;5049611;28;20041;-61
2022/05/03 13:56:39;;;;;;;6.13;2.03;;;;;;;;;;5050786;28;20459;-61
2022/05/03 13:59:06;;;;;;;6.33;1.90;;;;;;;;;;5050881;28;20407;-61
2022/05/03 14:01:33;;;;;;;6.23;2.07;;;;;;;;;;5048712;28;20049;-61
2022/05/03 14:04:02;;;;;;;6.77;2.30;;;;;;;;;;5050722;28;20505;-61
2022/05/03 14:06:28;;;;;;;8.03;2.20;;;;;;;;;;5048463;28;20049;-62
2022/05/03 14:08:54;;;;;;;6.00;2.30;;;;;;;;;;5030550;28;20046;-61
2022/05/03 14:11:21;;;;;;;8.10;2.50;;;;;;;;;;5030503;28;20080;-61
2022/05/03 14:13:47;;;;;;;6.27;1.97;;;;;;;;;;5050528;28;20105;-61
2022/05/03 14:16:16;;;;;;;6.50;2.03;;;;;;;;;;5050307;28;20831;-61
2022/05/03 14:18:42;;;;;;;8.87;2.70;;;;;;;;;;5049065;28;20048;-61
2022/05/03 14:21:08;;;;;;;5.43;2.30;;;;;;;;;;5047139;28;20106;-61
2022/05/03 14:23:35;;;;;;;5.07;2.00;;;;;;;;;;5049797;28;20915;-61
2022/05/03 14:26:01;;;;;;;6.40;2.10;;;;;;;;;;5048197;28;20071;-61
2022/05/03 14:28:27;;;;;;;6.43;2.33;;;;;;;;;;5050443;28;20037;-61
2022/05/03 14:30:53;;;;;;;5.67;2.07;;;;;;;;;;5050259;28;20091;-61
2022/05/03 14:33:19;;;;;;;6.83;1.70;;;;;;;;;;5049488;28;20052;-61
2022/05/03 14:35:46;;;;;;;4.77;1.70;;;;;;;;;;5049476;28;20045;-61
2022/05/03 14:38:12;;;;;;;5.63;2.07;;;;;;;;;;5049151;28;20041;-61
2022/05/03 14:40:38;;;;;;;7.40;2.40;;;;;;;;;;5049394;28;20059;-61
2022/05/03 14:43:06;;;;;;;7.37;2.37;;;;;;;;;;5048029;28;20041;-61
2022/05/03 14:45:34;;;;;;;8.27;2.57;;;;;;;;;;5050010;28;20166;-61
2022/05/03 14:48:00;;;;;;;6.43;2.27;;;;;;;;;;5048908;28;20049;-61
2022/05/03 14:50:28;;;;;;;5.50;1.77;;;;;;;;;;5049781;28;20080;-61
2022/05/03 14:52:54;;;;;;;6.53;2.17;;;;;;;;;;5048127;28;20456;-61
2022/05/03 14:55:20;;;;;;;10.07;2.30;;;;;;;;;;5048507;28;20395;-61
2022/05/03 15:03:27;;;;;;;7.47;2.10;;;;;;;;;;4987558;28;20155;-61
2022/05/03 15:05:54;;;;;;;4.80;1.83;;;;;;;;;;5037317;28;20045;-61
2022/05/03 15:08:20;;;;;;;5.23;2.03;;;;;;;;;;5037231;28;20076;-61
2022/05/03 15:10:46;;;;;;;7.53;2.10;;;;;;;;;;5049079;28;20045;-61
2022/05/03 15:13:12;;;;;;;9.37;2.17;;;;;;;;;;5048835;28;20094;-61
2022/05/03 15:15:40;;;;;;;9.13;2.90;;;;;;;;;;5048272;28;20048;-61
2022/05/03 15:18:07;;;;;;;10.60;2.27;;;;;;;;;;5047104;28;20045;-61
2022/05/03 15:20:33;;;;;;;6.80;1.93;;;;;;;;;;5049455;28;20041;-61
2022/05/03 15:25:46;;;;;;;7.20;2.53;;;;;;;;;;5048166;28;20135;-61
2022/05/03 15:28:12;;;;;;;7.10;2.23;;;;;;;;;;5047893;28;20044;-61